sensor_id;sensor_type;location;lat;lon;timestamp;temperature;humidity
23377;DHT22;14353;46.070;13.222;2024-02-26T00:01:38;19.10;46.60
23377;DHT22;14353;46.070;13.222;2024-02-26T00:04:04;19.10;46.60
23377;DHT22;14353;46.070;13.222;2024-02-26T00:06:30;19.00;46.50
23377;DHT22;14353;46.070;13.222;2024-02-26T00:08:56;19.00;46.50
23377;DHT22;14353;46.070;13.222;2024-02-26T00:11:22;19.10;46.60
23377;DHT22;14353;46.070;13.222;2024-02-26T00:13:48;19.00;46.60
23377;DHT22;14353;46.070;13.222;2024-02-26T00:16:13;19.10;46.60
23377;DHT22;14353;46.070;13.222;2024-02-26T00:18:39;19.00;46.50
23377;DHT22;14353;46.070;13.222;2024-02-26T00:21:05;19.00;46.60
23377;DHT22;14353;46.070;13.222;2024-02-26T00:23:31;19.00;46.50
23377;DHT22;14353;46.070;13.222;2024-02-26T00:25:57;19.00;47.20
23377;DHT22;14353;46.070;13.222;2024-02-26T00:28:22;19.00;46.50
23377;DHT22;14353;46.070;13.222;2024-02-26T00:30:50;19.00;46.50
23377;DHT22;14353;46.070;13.222;2024-02-26T00:33:17;19.00;46.50
23377;DHT22;14353;46.070;13.222;2024-02-26T00:35:43;19.00;46.50
23377;DHT22;14353;46.070;13.222;2024-02-26T00:38:09;19.00;46.50
23377;DHT22;14353;46.070;13.222;2024-02-26T00:40:34;19.00;46.50
23377;DHT22;14353;46.070;13.222;2024-02-26T00:43:00;19.00;46.50
23377;DHT22;14353;46.070;13.222;2024-02-26T00:45:26;18.90;46.50
23377;DHT22;14353;46.070;13.222;2024-02-26T00:47:51;19.00;46.50
23377;DHT22;14353;46.070;13.222;2024-02-26T00:50:17;19.00;46.50
23377;DHT22;14353;46.070;13.222;2024-02-26T00:52:43;19.00;46.50
23377;DHT22;14353;46.070;13.222;2024-02-26T00:55:09;19.00;46.50
23377;DHT22;14353;46.070;13.222;2024-02-26T00:57:34;19.00;46.50
23377;DHT22;14353;46.070;13.222;2024-02-26T01:00:00;19.00;46.50
23377;DHT22;14353;46.070;13.222;2024-02-26T01:02:26;18.90;46.50
23377;DHT22;14353;46.070;13.222;2024-02-26T01:04:52;18.90;46.50
23377;DHT22;14353;46.070;13.222;2024-02-26T01:07:18;19.00;46.50
23377;DHT22;14353;46.070;13.222;2024-02-26T01:09:47;18.90;46.50
23377;DHT22;14353;46.070;13.222;2024-02-26T01:12:13;18.90;46.50
23377;DHT22;14353;46.070;13.222;2024-02-26T01:14:38;18.90;47.20
23377;DHT22;14353;46.070;13.222;2024-02-26T01:17:04;18.90;46.50
23377;DHT22;14353;46.070;13.222;2024-02-26T01:19:30;18.90;46.50
23377;DHT22;14353;46.070;13.222;2024-02-26T01:21:55;18.90;46.50
23377;DHT22;14353;46.070;13.222;2024-02-26T01:24:21;18.90;46.50
23377;DHT22;14353;46.070;13.222;2024-02-26T01:26:47;18.90;46.50
23377;DHT22;14353;46.070;13.222;2024-02-26T01:29:13;18.90;46.50
23377;DHT22;14353;46.070;13.222;2024-02-26T01:31:38;18.90;46.50
23377;DHT22;14353;46.070;13.222;2024-02-26T01:34:04;18.90;46.50
23377;DHT22;14353;46.070;13.222;2024-02-26T01:36:29;18.90;46.50
23377;DHT22;14353;46.070;13.222;2024-02-26T01:38:55;18.90;46.50
23377;DHT22;14353;46.070;13.222;2024-02-26T01:41:21;18.90;46.60
23377;DHT22;14353;46.070;13.222;2024-02-26T01:43:46;18.90;46.50
23377;DHT22;14353;46.070;13.222;2024-02-26T01:46:14;18.90;46.60
23377;DHT22;14353;46.070;13.222;2024-02-26T01:48:44;18.90;46.60
23377;DHT22;14353;46.070;13.222;2024-02-26T01:51:12;18.90;46.50
23377;DHT22;14353;46.070;13.222;2024-02-26T01:53:40;18.90;46.60
23377;DHT22;14353;46.070;13.222;2024-02-26T01:56:06;18.80;46.40
23377;DHT22;14353;46.070;13.222;2024-02-26T01:58:34;18.80;46.50
23377;DHT22;14353;46.070;13.222;2024-02-26T02:01:01;18.80;46.50
23377;DHT22;14353;46.070;13.222;2024-02-26T02:03:28;18.80;46.50
23377;DHT22;14353;46.070;13.222;2024-02-26T02:05:55;18.80;46.50
23377;DHT22;14353;46.070;13.222;2024-02-26T02:08:22;18.80;46.50
23377;DHT22;14353;46.070;13.222;2024-02-26T02:10:49;18.80;46.50
23377;DHT22;14353;46.070;13.222;2024-02-26T02:13:15;18.80;46.50
23377;DHT22;14353;46.070;13.222;2024-02-26T02:15:40;18.80;46.50
23377;DHT22;14353;46.070;13.222;2024-02-26T02:18:06;18.80;46.50
23377;DHT22;14353;46.070;13.222;2024-02-26T02:20:33;18.80;46.50
23377;DHT22;14353;46.070;13.222;2024-02-26T02:23:02;18.80;46.50
23377;DHT22;14353;46.070;13.222;2024-02-26T02:25:28;18.80;46.50
23377;DHT22;14353;46.070;13.222;2024-02-26T02:27:54;18.80;46.50
23377;DHT22;14353;46.070;13.222;2024-02-26T02:30:29;18.80;46.50
23377;DHT22;14353;46.070;13.222;2024-02-26T02:32:57;18.80;46.50
23377;DHT22;14353;46.070;13.222;2024-02-26T02:35:24;18.80;46.50
23377;DHT22;14353;46.070;13.222;2024-02-26T02:37:52;18.80;46.50
23377;DHT22;14353;46.070;13.222;2024-02-26T02:40:18;18.80;46.50
23377;DHT22;14353;46.070;13.222;2024-02-26T02:42:43;18.80;46.60
23377;DHT22;14353;46.070;13.222;2024-02-26T02:45:09;18.80;46.50
23377;DHT22;14353;46.070;13.222;2024-02-26T02:47:38;18.70;46.50
23377;DHT22;14353;46.070;13.222;2024-02-26T02:50:04;18.70;46.80
23377;DHT22;14353;46.070;13.222;2024-02-26T02:52:30;18.70;46.50
23377;DHT22;14353;46.070;13.222;2024-02-26T02:54:56;18.70;46.50
23377;DHT22;14353;46.070;13.222;2024-02-26T02:57:22;18.70;46.50
23377;DHT22;14353;46.070;13.222;2024-02-26T02:59:48;18.70;46.50
23377;DHT22;14353;46.070;13.222;2024-02-26T03:02:14;18.70;46.50
23377;DHT22;14353;46.070;13.222;2024-02-26T03:04:39;18.70;46.50
23377;DHT22;14353;46.070;13.222;2024-02-26T03:07:05;18.70;46.50
23377;DHT22;14353;46.070;13.222;2024-02-26T03:09:31;18.70;46.50
23377;DHT22;14353;46.070;13.222;2024-02-26T03:11:56;18.70;46.50
23377;DHT22;14353;46.070;13.222;2024-02-26T03:14:25;18.70;46.50
23377;DHT22;14353;46.070;13.222;2024-02-26T03:16:54;18.70;46.50
23377;DHT22;14353;46.070;13.222;2024-02-26T03:19:20;18.70;46.50
23377;DHT22;14353;46.070;13.222;2024-02-26T03:21:46;18.70;46.50
23377;DHT22;14353;46.070;13.222;2024-02-26T03:24:11;18.70;46.50
23377;DHT22;14353;46.070;13.222;2024-02-26T03:26:38;18.70;46.60
23377;DHT22;14353;46.070;13.222;2024-02-26T03:29:04;18.70;46.50
23377;DHT22;14353;46.070;13.222;2024-02-26T03:31:30;18.70;46.50
23377;DHT22;14353;46.070;13.222;2024-02-26T03:33:56;18.70;46.60
23377;DHT22;14353;46.070;13.222;2024-02-26T03:36:21;18.70;46.60
23377;DHT22;14353;46.070;13.222;2024-02-26T03:38:48;18.70;46.50
23377;DHT22;14353;46.070;13.222;2024-02-26T03:41:14;18.60;46.60
23377;DHT22;14353;46.070;13.222;2024-02-26T03:43:40;18.70;46.60
23377;DHT22;14353;46.070;13.222;2024-02-26T03:46:09;18.70;46.60
23377;DHT22;14353;46.070;13.222;2024-02-26T03:48:36;18.70;46.50
23377;DHT22;14353;46.070;13.222;2024-02-26T03:51:03;18.60;46.50
23377;DHT22;14353;46.070;13.222;2024-02-26T03:53:29;18.60;46.50
23377;DHT22;14353;46.070;13.222;2024-02-26T03:55:55;18.60;46.60
23377;DHT22;14353;46.070;13.222;2024-02-26T03:58:21;18.60;46.50
23377;DHT22;14353;46.070;13.222;2024-02-26T04:00:47;18.60;46.50
23377;DHT22;14353;46.070;13.222;2024-02-26T04:03:15;18.60;46.50
23377;DHT22;14353;46.070;13.222;2024-02-26T04:05:41;18.60;46.50
23377;DHT22;14353;46.070;13.222;2024-02-26T04:08:07;18.60;46.50
23377;DHT22;14353;46.070;13.222;2024-02-26T04:10:33;18.60;46.50
23377;DHT22;14353;46.070;13.222;2024-02-26T04:13:04;18.60;46.60
23377;DHT22;14353;46.070;13.222;2024-02-26T04:15:31;18.60;46.60
23377;DHT22;14353;46.070;13.222;2024-02-26T04:17:57;18.60;46.60
23377;DHT22;14353;46.070;13.222;2024-02-26T04:20:23;18.60;46.60
23377;DHT22;14353;46.070;13.222;2024-02-26T04:22:48;18.50;46.50
23377;DHT22;14353;46.070;13.222;2024-02-26T04:25:14;18.50;46.60
23377;DHT22;14353;46.070;13.222;2024-02-26T04:27:40;18.50;47.30
23377;DHT22;14353;46.070;13.222;2024-02-26T04:30:07;18.50;46.60
23377;DHT22;14353;46.070;13.222;2024-02-26T04:32:32;18.50;46.70
23377;DHT22;14353;46.070;13.222;2024-02-26T04:35:00;18.50;46.70
23377;DHT22;14353;46.070;13.222;2024-02-26T04:37:26;18.50;47.50
23377;DHT22;14353;46.070;13.222;2024-02-26T04:39:58;18.50;46.70
23377;DHT22;14353;46.070;13.222;2024-02-26T04:42:24;18.50;46.80
23377;DHT22;14353;46.070;13.222;2024-02-26T04:44:49;18.50;46.70
23377;DHT22;14353;46.070;13.222;2024-02-26T04:47:15;18.50;46.70
23377;DHT22;14353;46.070;13.222;2024-02-26T04:49:41;18.50;46.60
23377;DHT22;14353;46.070;13.222;2024-02-26T04:52:06;18.50;46.60
23377;DHT22;14353;46.070;13.222;2024-02-26T04:54:32;18.60;46.50
23377;DHT22;14353;46.070;13.222;2024-02-26T04:56:58;18.60;46.40
23377;DHT22;14353;46.070;13.222;2024-02-26T04:59:24;18.60;46.40
23377;DHT22;14353;46.070;13.222;2024-02-26T05:01:50;18.60;46.30
23377;DHT22;14353;46.070;13.222;2024-02-26T05:04:18;18.70;46.30
23377;DHT22;14353;46.070;13.222;2024-02-26T05:06:43;18.70;46.20
23377;DHT22;14353;46.070;13.222;2024-02-26T05:09:12;18.70;46.10
23377;DHT22;14353;46.070;13.222;2024-02-26T05:11:38;18.80;46.00
23377;DHT22;14353;46.070;13.222;2024-02-26T05:14:03;18.80;46.00
23377;DHT22;14353;46.070;13.222;2024-02-26T05:16:29;18.80;45.90
23377;DHT22;14353;46.070;13.222;2024-02-26T05:18:56;18.80;46.00
23377;DHT22;14353;46.070;13.222;2024-02-26T05:21:22;18.80;46.00
23377;DHT22;14353;46.070;13.222;2024-02-26T05:23:48;18.80;45.90
23377;DHT22;14353;46.070;13.222;2024-02-26T05:26:23;18.80;45.90
23377;DHT22;14353;46.070;13.222;2024-02-26T05:28:49;18.80;46.00
23377;DHT22;14353;46.070;13.222;2024-02-26T05:31:15;18.80;46.00
23377;DHT22;14353;46.070;13.222;2024-02-26T05:33:41;18.70;46.00
23377;DHT22;14353;46.070;13.222;2024-02-26T05:36:07;18.80;46.00
23377;DHT22;14353;46.070;13.222;2024-02-26T05:38:33;18.80;45.90
23377;DHT22;14353;46.070;13.222;2024-02-26T05:40:59;18.80;45.90
23377;DHT22;14353;46.070;13.222;2024-02-26T05:43:25;18.80;46.60
23377;DHT22;14353;46.070;13.222;2024-02-26T05:45:51;18.80;46.50
23377;DHT22;14353;46.070;13.222;2024-02-26T05:48:17;18.80;45.80
23377;DHT22;14353;46.070;13.222;2024-02-26T05:50:45;18.80;45.80
23377;DHT22;14353;46.070;13.222;2024-02-26T05:53:10;18.80;45.80
23377;DHT22;14353;46.070;13.222;2024-02-26T05:55:36;18.80;45.70
23377;DHT22;14353;46.070;13.222;2024-02-26T05:58:02;18.90;45.80
23377;DHT22;14353;46.070;13.222;2024-02-26T06:00:28;18.90;45.70
23377;DHT22;14353;46.070;13.222;2024-02-26T06:02:54;18.90;45.70
23377;DHT22;14353;46.070;13.222;2024-02-26T06:05:19;18.90;45.60
23377;DHT22;14353;46.070;13.222;2024-02-26T06:07:45;18.90;45.60
23377;DHT22;14353;46.070;13.222;2024-02-26T06:10:11;18.90;45.60
23377;DHT22;14353;46.070;13.222;2024-02-26T06:12:39;19.00;45.50
23377;DHT22;14353;46.070;13.222;2024-02-26T06:15:06;19.00;45.50
23377;DHT22;14353;46.070;13.222;2024-02-26T06:17:32;19.00;45.50
23377;DHT22;14353;46.070;13.222;2024-02-26T06:19:59;19.00;45.40
23377;DHT22;14353;46.070;13.222;2024-02-26T06:22:25;19.00;45.40
23377;DHT22;14353;46.070;13.222;2024-02-26T06:24:51;19.10;45.40
23377;DHT22;14353;46.070;13.222;2024-02-26T06:27:17;19.10;45.30
23377;DHT22;14353;46.070;13.222;2024-02-26T06:29:42;19.10;45.30
23377;DHT22;14353;46.070;13.222;2024-02-26T06:32:08;19.10;45.20
23377;DHT22;14353;46.070;13.222;2024-02-26T06:34:34;19.10;45.10
23377;DHT22;14353;46.070;13.222;2024-02-26T06:37:00;19.20;45.20
23377;DHT22;14353;46.070;13.222;2024-02-26T06:39:25;19.20;45.10
23377;DHT22;14353;46.070;13.222;2024-02-26T06:41:52;19.20;45.00
23377;DHT22;14353;46.070;13.222;2024-02-26T06:44:23;19.30;45.00
23377;DHT22;14353;46.070;13.222;2024-02-26T06:46:50;19.30;44.90
23377;DHT22;14353;46.070;13.222;2024-02-26T06:49:15;19.30;44.90
23377;DHT22;14353;46.070;13.222;2024-02-26T06:51:41;19.30;44.80
23377;DHT22;14353;46.070;13.222;2024-02-26T06:54:07;19.30;44.80
23377;DHT22;14353;46.070;13.222;2024-02-26T06:56:32;19.40;44.80
23377;DHT22;14353;46.070;13.222;2024-02-26T06:58:58;19.40;44.70
23377;DHT22;14353;46.070;13.222;2024-02-26T07:01:24;19.40;44.70
23377;DHT22;14353;46.070;13.222;2024-02-26T07:03:49;19.40;44.60
23377;DHT22;14353;46.070;13.222;2024-02-26T07:06:15;19.50;44.70
23377;DHT22;14353;46.070;13.222;2024-02-26T07:08:41;19.50;44.60
23377;DHT22;14353;46.070;13.222;2024-02-26T07:11:11;19.50;44.60
23377;DHT22;14353;46.070;13.222;2024-02-26T07:13:37;19.50;44.50
23377;DHT22;14353;46.070;13.222;2024-02-26T07:16:04;19.60;44.60
23377;DHT22;14353;46.070;13.222;2024-02-26T07:18:31;19.60;44.80
23377;DHT22;14353;46.070;13.222;2024-02-26T07:20:56;19.60;44.90
23377;DHT22;14353;46.070;13.222;2024-02-26T07:23:22;19.70;45.00
23377;DHT22;14353;46.070;13.222;2024-02-26T07:25:49;19.70;45.00
23377;DHT22;14353;46.070;13.222;2024-02-26T07:28:18;19.70;45.10
23377;DHT22;14353;46.070;13.222;2024-02-26T07:30:45;19.80;45.20
23377;DHT22;14353;46.070;13.222;2024-02-26T07:33:10;19.80;45.20
23377;DHT22;14353;46.070;13.222;2024-02-26T07:35:36;19.90;45.40
23377;DHT22;14353;46.070;13.222;2024-02-26T07:38:07;19.90;45.40
23377;DHT22;14353;46.070;13.222;2024-02-26T07:40:33;20.00;45.40
23377;DHT22;14353;46.070;13.222;2024-02-26T07:42:58;20.00;45.50
23377;DHT22;14353;46.070;13.222;2024-02-26T07:45:24;20.10;45.40
23377;DHT22;14353;46.070;13.222;2024-02-26T07:47:50;20.20;45.40
23377;DHT22;14353;46.070;13.222;2024-02-26T07:50:18;20.30;45.20
23377;DHT22;14353;46.070;13.222;2024-02-26T07:52:45;20.40;45.00
23377;DHT22;14353;46.070;13.222;2024-02-26T07:55:11;20.50;45.00
23377;DHT22;14353;46.070;13.222;2024-02-26T07:57:36;20.50;44.80
23377;DHT22;14353;46.070;13.222;2024-02-26T08:00:03;20.60;44.80
23377;DHT22;14353;46.070;13.222;2024-02-26T08:02:29;20.60;44.80
23377;DHT22;14353;46.070;13.222;2024-02-26T08:04:55;20.60;44.90
23377;DHT22;14353;46.070;13.222;2024-02-26T08:07:20;20.60;45.00
23377;DHT22;14353;46.070;13.222;2024-02-26T08:09:47;20.70;45.30
23377;DHT22;14353;46.070;13.222;2024-02-26T08:12:13;20.70;45.40
23377;DHT22;14353;46.070;13.222;2024-02-26T08:14:39;20.70;45.30
23377;DHT22;14353;46.070;13.222;2024-02-26T08:17:05;20.80;45.30
23377;DHT22;14353;46.070;13.222;2024-02-26T08:19:31;20.80;45.40
23377;DHT22;14353;46.070;13.222;2024-02-26T08:21:56;20.90;45.50
23377;DHT22;14353;46.070;13.222;2024-02-26T08:24:23;20.90;45.60
23377;DHT22;14353;46.070;13.222;2024-02-26T08:26:48;21.00;45.10
23377;DHT22;14353;46.070;13.222;2024-02-26T08:29:14;21.10;45.30
23377;DHT22;14353;46.070;13.222;2024-02-26T08:31:40;21.20;45.10
23377;DHT22;14353;46.070;13.222;2024-02-26T08:34:06;21.30;45.10
23377;DHT22;14353;46.070;13.222;2024-02-26T08:36:33;21.30;45.10
23377;DHT22;14353;46.070;13.222;2024-02-26T08:38:59;21.30;45.30
23377;DHT22;14353;46.070;13.222;2024-02-26T08:41:25;21.40;45.20
23377;DHT22;14353;46.070;13.222;2024-02-26T08:43:51;21.40;45.30
23377;DHT22;14353;46.070;13.222;2024-02-26T08:46:16;21.40;45.50
23377;DHT22;14353;46.070;13.222;2024-02-26T08:48:42;21.40;45.40
23377;DHT22;14353;46.070;13.222;2024-02-26T08:51:08;21.50;45.50
23377;DHT22;14353;46.070;13.222;2024-02-26T08:53:37;21.50;45.70
23377;DHT22;14353;46.070;13.222;2024-02-26T08:56:03;21.50;45.70
23377;DHT22;14353;46.070;13.222;2024-02-26T08:58:29;21.60;45.50
23377;DHT22;14353;46.070;13.222;2024-02-26T09:00:56;21.60;45.30
23377;DHT22;14353;46.070;13.222;2024-02-26T09:03:22;21.70;45.30
23377;DHT22;14353;46.070;13.222;2024-02-26T09:05:48;21.70;45.10
23377;DHT22;14353;46.070;13.222;2024-02-26T09:08:14;21.70;45.10
23377;DHT22;14353;46.070;13.222;2024-02-26T09:10:40;21.70;45.20
23377;DHT22;14353;46.070;13.222;2024-02-26T09:13:06;21.80;45.20
23377;DHT22;14353;46.070;13.222;2024-02-26T09:15:34;21.80;45.10
23377;DHT22;14353;46.070;13.222;2024-02-26T09:18:00;21.80;45.10
23377;DHT22;14353;46.070;13.222;2024-02-26T09:20:25;21.80;45.20
23377;DHT22;14353;46.070;13.222;2024-02-26T09:22:51;21.70;45.40
23377;DHT22;14353;46.070;13.222;2024-02-26T09:25:17;21.60;45.70
23377;DHT22;14353;46.070;13.222;2024-02-26T09:27:46;21.60;45.90
23377;DHT22;14353;46.070;13.222;2024-02-26T09:30:13;21.60;46.00
23377;DHT22;14353;46.070;13.222;2024-02-26T09:32:40;21.50;46.20
23377;DHT22;14353;46.070;13.222;2024-02-26T09:35:06;21.40;46.30
23377;DHT22;14353;46.070;13.222;2024-02-26T09:37:32;21.40;46.40
23377;DHT22;14353;46.070;13.222;2024-02-26T09:39:59;21.40;46.60
23377;DHT22;14353;46.070;13.222;2024-02-26T09:42:28;21.40;46.80
23377;DHT22;14353;46.070;13.222;2024-02-26T09:44:59;21.40;46.80
23377;DHT22;14353;46.070;13.222;2024-02-26T09:47:28;21.40;46.80
23377;DHT22;14353;46.070;13.222;2024-02-26T09:49:56;21.50;46.90
23377;DHT22;14353;46.070;13.222;2024-02-26T09:52:24;21.50;46.80
23377;DHT22;14353;46.070;13.222;2024-02-26T09:54:51;21.50;46.80
23377;DHT22;14353;46.070;13.222;2024-02-26T09:57:16;21.50;46.80
23377;DHT22;14353;46.070;13.222;2024-02-26T09:59:44;21.50;46.80
23377;DHT22;14353;46.070;13.222;2024-02-26T10:02:13;21.60;47.00
23377;DHT22;14353;46.070;13.222;2024-02-26T10:04:42;21.60;46.80
23377;DHT22;14353;46.070;13.222;2024-02-26T10:07:11;21.60;47.00
23377;DHT22;14353;46.070;13.222;2024-02-26T10:09:37;21.70;46.60
23377;DHT22;14353;46.070;13.222;2024-02-26T10:12:06;21.80;46.60
23377;DHT22;14353;46.070;13.222;2024-02-26T10:14:33;21.90;46.60
23377;DHT22;14353;46.070;13.222;2024-02-26T10:16:59;22.00;46.40
23377;DHT22;14353;46.070;13.222;2024-02-26T10:19:29;22.10;46.40
23377;DHT22;14353;46.070;13.222;2024-02-26T10:22:02;22.10;46.10
23377;DHT22;14353;46.070;13.222;2024-02-26T10:24:30;22.30;45.90
23377;DHT22;14353;46.070;13.222;2024-02-26T10:26:56;22.40;45.70
23377;DHT22;14353;46.070;13.222;2024-02-26T10:29:24;22.50;45.50
23377;DHT22;14353;46.070;13.222;2024-02-26T10:31:53;22.50;45.30
23377;DHT22;14353;46.070;13.222;2024-02-26T10:34:19;22.60;45.10
23377;DHT22;14353;46.070;13.222;2024-02-26T10:36:45;22.70;45.00
23377;DHT22;14353;46.070;13.222;2024-02-26T10:39:14;22.70;44.80
23377;DHT22;14353;46.070;13.222;2024-02-26T10:41:44;22.80;44.60
23377;DHT22;14353;46.070;13.222;2024-02-26T10:44:11;22.90;44.50
23377;DHT22;14353;46.070;13.222;2024-02-26T10:46:40;23.00;44.30
23377;DHT22;14353;46.070;13.222;2024-02-26T10:49:07;23.10;44.10
23377;DHT22;14353;46.070;13.222;2024-02-26T10:51:38;23.10;44.00
23377;DHT22;14353;46.070;13.222;2024-02-26T10:54:05;23.30;43.80
23377;DHT22;14353;46.070;13.222;2024-02-26T10:56:34;23.50;43.30
23377;DHT22;14353;46.070;13.222;2024-02-26T10:59:00;23.70;42.70
23377;DHT22;14353;46.070;13.222;2024-02-26T11:01:27;24.00;42.10
23377;DHT22;14353;46.070;13.222;2024-02-26T11:03:58;24.20;41.40
23377;DHT22;14353;46.070;13.222;2024-02-26T11:06:26;24.50;40.90
23377;DHT22;14353;46.070;13.222;2024-02-26T11:08:52;24.60;40.50
23377;DHT22;14353;46.070;13.222;2024-02-26T11:11:20;24.80;40.30
23377;DHT22;14353;46.070;13.222;2024-02-26T11:13:47;24.80;40.60
23377;DHT22;14353;46.070;13.222;2024-02-26T11:16:18;24.70;40.40
23377;DHT22;14353;46.070;13.222;2024-02-26T11:18:49;24.60;40.50
23377;DHT22;14353;46.070;13.222;2024-02-26T11:21:19;24.50;40.70
23377;DHT22;14353;46.070;13.222;2024-02-26T11:23:47;24.50;40.80
23377;DHT22;14353;46.070;13.222;2024-02-26T11:26:15;24.50;40.90
23377;DHT22;14353;46.070;13.222;2024-02-26T11:28:42;24.40;40.80
23377;DHT22;14353;46.070;13.222;2024-02-26T11:31:09;24.40;40.90
23377;DHT22;14353;46.070;13.222;2024-02-26T11:33:35;24.50;40.70
23377;DHT22;14353;46.070;13.222;2024-02-26T11:36:07;24.60;40.50
23377;DHT22;14353;46.070;13.222;2024-02-26T11:38:33;24.80;40.20
23377;DHT22;14353;46.070;13.222;2024-02-26T11:40:59;24.90;40.00
23377;DHT22;14353;46.070;13.222;2024-02-26T11:43:58;24.90;39.90
23377;DHT22;14353;46.070;13.222;2024-02-26T11:46:33;24.80;39.90
23377;DHT22;14353;46.070;13.222;2024-02-26T11:51:51;24.60;39.80
23377;DHT22;14353;46.070;13.222;2024-02-26T11:54:46;24.50;40.00
23377;DHT22;14353;46.070;13.222;2024-02-26T11:57:45;24.40;40.10
23377;DHT22;14353;46.070;13.222;2024-02-26T12:00:12;24.40;40.10
23377;DHT22;14353;46.070;13.222;2024-02-26T12:05:12;24.40;39.90
23377;DHT22;14353;46.070;13.222;2024-02-26T12:10:28;24.60;39.30
23377;DHT22;14353;46.070;13.222;2024-02-26T12:13:05;24.60;39.00
23377;DHT22;14353;46.070;13.222;2024-02-26T12:15:32;24.50;39.40
23377;DHT22;14353;46.070;13.222;2024-02-26T12:18:01;24.40;38.30
23377;DHT22;14353;46.070;13.222;2024-02-26T12:20:28;24.10;39.20
23377;DHT22;14353;46.070;13.222;2024-02-26T12:22:54;24.00;39.90
23377;DHT22;14353;46.070;13.222;2024-02-26T12:25:25;23.90;39.40
23377;DHT22;14353;46.070;13.222;2024-02-26T12:27:53;23.70;39.30
23377;DHT22;14353;46.070;13.222;2024-02-26T12:30:18;23.60;39.00
23377;DHT22;14353;46.070;13.222;2024-02-26T12:32:48;23.50;40.10
23377;DHT22;14353;46.070;13.222;2024-02-26T12:35:15;23.50;39.20
23377;DHT22;14353;46.070;13.222;2024-02-26T12:37:42;23.40;39.90
23377;DHT22;14353;46.070;13.222;2024-02-26T12:40:09;23.30;40.20
23377;DHT22;14353;46.070;13.222;2024-02-26T12:42:39;23.20;40.00
23377;DHT22;14353;46.070;13.222;2024-02-26T12:45:06;23.20;39.10
23377;DHT22;14353;46.070;13.222;2024-02-26T12:47:40;23.20;38.90
23377;DHT22;14353;46.070;13.222;2024-02-26T12:50:07;23.10;39.00
23377;DHT22;14353;46.070;13.222;2024-02-26T12:52:42;23.10;39.20
23377;DHT22;14353;46.070;13.222;2024-02-26T12:55:09;23.00;39.30
23377;DHT22;14353;46.070;13.222;2024-02-26T12:57:37;23.00;39.40
23377;DHT22;14353;46.070;13.222;2024-02-26T13:00:05;23.00;39.90
23377;DHT22;14353;46.070;13.222;2024-02-26T13:02:31;22.90;39.60
23377;DHT22;14353;46.070;13.222;2024-02-26T13:04:57;22.90;39.50
23377;DHT22;14353;46.070;13.222;2024-02-26T13:07:27;22.80;39.40
23377;DHT22;14353;46.070;13.222;2024-02-26T13:09:53;22.80;39.50
23377;DHT22;14353;46.070;13.222;2024-02-26T13:12:20;22.70;39.70
23377;DHT22;14353;46.070;13.222;2024-02-26T13:14:46;22.70;39.90
23377;DHT22;14353;46.070;13.222;2024-02-26T13:17:11;22.70;40.00
23377;DHT22;14353;46.070;13.222;2024-02-26T13:19:37;22.60;40.20
23377;DHT22;14353;46.070;13.222;2024-02-26T13:22:07;22.60;40.30
23377;DHT22;14353;46.070;13.222;2024-02-26T13:24:34;22.60;41.00
23377;DHT22;14353;46.070;13.222;2024-02-26T13:27:00;22.50;40.40
23377;DHT22;14353;46.070;13.222;2024-02-26T13:29:26;22.50;40.60
23377;DHT22;14353;46.070;13.222;2024-02-26T13:31:57;22.50;40.60
23377;DHT22;14353;46.070;13.222;2024-02-26T13:34:27;22.50;40.70
23377;DHT22;14353;46.070;13.222;2024-02-26T13:36:53;22.40;40.70
23377;DHT22;14353;46.070;13.222;2024-02-26T13:39:27;22.40;40.70
23377;DHT22;14353;46.070;13.222;2024-02-26T13:41:53;22.40;40.80
23377;DHT22;14353;46.070;13.222;2024-02-26T13:44:20;22.40;40.80
23377;DHT22;14353;46.070;13.222;2024-02-26T13:46:47;22.40;40.80
23377;DHT22;14353;46.070;13.222;2024-02-26T13:49:13;22.40;40.80
23377;DHT22;14353;46.070;13.222;2024-02-26T13:51:39;22.40;40.90
23377;DHT22;14353;46.070;13.222;2024-02-26T13:54:05;22.40;41.00
23377;DHT22;14353;46.070;13.222;2024-02-26T13:56:31;22.40;40.90
23377;DHT22;14353;46.070;13.222;2024-02-26T13:58:57;22.40;41.00
23377;DHT22;14353;46.070;13.222;2024-02-26T14:01:24;22.40;41.00
23377;DHT22;14353;46.070;13.222;2024-02-26T14:03:49;22.40;41.00
23377;DHT22;14353;46.070;13.222;2024-02-26T14:06:15;22.40;41.00
23377;DHT22;14353;46.070;13.222;2024-02-26T14:08:41;22.40;41.10
23377;DHT22;14353;46.070;13.222;2024-02-26T14:11:07;22.30;41.10
23377;DHT22;14353;46.070;13.222;2024-02-26T14:13:32;22.30;41.10
23377;DHT22;14353;46.070;13.222;2024-02-26T14:15:58;22.30;41.30
23377;DHT22;14353;46.070;13.222;2024-02-26T14:18:24;22.30;41.40
23377;DHT22;14353;46.070;13.222;2024-02-26T14:20:50;22.30;41.50
23377;DHT22;14353;46.070;13.222;2024-02-26T14:23:17;22.30;41.60
23377;DHT22;14353;46.070;13.222;2024-02-26T14:25:42;22.30;41.60
23377;DHT22;14353;46.070;13.222;2024-02-26T14:28:08;22.30;41.70
23377;DHT22;14353;46.070;13.222;2024-02-26T14:30:34;22.20;41.60
23377;DHT22;14353;46.070;13.222;2024-02-26T14:33:00;22.20;41.70
23377;DHT22;14353;46.070;13.222;2024-02-26T14:35:26;22.20;41.80
23377;DHT22;14353;46.070;13.222;2024-02-26T14:37:52;22.20;41.80
23377;DHT22;14353;46.070;13.222;2024-02-26T14:40:17;22.20;41.90
23377;DHT22;14353;46.070;13.222;2024-02-26T14:42:44;22.10;41.90
23377;DHT22;14353;46.070;13.222;2024-02-26T14:45:10;22.20;42.10
23377;DHT22;14353;46.070;13.222;2024-02-26T14:47:36;22.10;42.00
23377;DHT22;14353;46.070;13.222;2024-02-26T14:50:03;22.10;42.00
23377;DHT22;14353;46.070;13.222;2024-02-26T14:52:29;22.10;42.00
23377;DHT22;14353;46.070;13.222;2024-02-26T14:54:55;22.10;42.00
23377;DHT22;14353;46.070;13.222;2024-02-26T14:57:20;22.10;42.10
23377;DHT22;14353;46.070;13.222;2024-02-26T14:59:46;22.10;42.10
23377;DHT22;14353;46.070;13.222;2024-02-26T15:02:13;22.00;42.10
23377;DHT22;14353;46.070;13.222;2024-02-26T15:04:39;22.00;42.10
23377;DHT22;14353;46.070;13.222;2024-02-26T15:07:04;22.00;42.20
23377;DHT22;14353;46.070;13.222;2024-02-26T15:09:30;22.00;42.20
23377;DHT22;14353;46.070;13.222;2024-02-26T15:11:56;22.00;42.20
23377;DHT22;14353;46.070;13.222;2024-02-26T15:14:23;22.00;42.30
23377;DHT22;14353;46.070;13.222;2024-02-26T15:16:49;22.00;42.30
23377;DHT22;14353;46.070;13.222;2024-02-26T15:19:16;21.90;42.20
23377;DHT22;14353;46.070;13.222;2024-02-26T15:21:45;21.90;42.00